Hamburg, Minnesota
Current Conditions -  °F | °C
As of 10:33 AM on Friday 31 Oct 2014 (Local Time) from KGYL Reporting Station
Clear Clear  
Wind Chill: 24°   Ceiling: Unl
Heat Index: 32°   Visibility: 10mi
Dew Point: 20°   Wind: 9mph
Humidity: 62%   Direction: 20°NNE
Pressure: 30.56"   Gusts: 18mph
Location:  44.73°N, 93.97°W
Report Text: KGYL 311533Z AUTO 02008G16KT 10SM CLR 00/M06 A3056 RMK AO2 T00001064
Loading
Personal Weather Stations






























Interactive Weather Map
Tropical Storm Tracking
New forecast layout! Learn more

10-Day Weather Forecast

Advertisements
Track Severe Weather on mobile